Accueil
METAR-TAF:

METAR-TAF

Aéroports :

Évreux, France

Base aérienne 105 Évreux-Fauville

latitude: 49-01N, longitude: 001-13E, altitude: 141 m

Observation

Le bulletin a été fait il y a 38 minutes, à 04:30 UTC
Vent 3 kt de sud/sud-est
Température -1°C
Humidité 100%
Pression 1024 hPa
Visibilité: 6000 m

METAR: LFOE 180430Z AUTO 16003KT 6000 NSC M01/M01 Q1024

Heure: 06:08 (05:08 UTC)

Prévision

Le bulletin a été fait il y a 3 heures et 8 minutes, à 02:00 UTC
Prévision valable du 18 à 03 UTC au 19 à 03 UTC
Vent 3 kt de sud/sud-est
Visibilité 10 km ou plus
pas de nuages en-dessous de 1500 mètres et pas de cumulonimbus.
Temporairement
du 18 à 03 UTC au 18 à 09 UTC
Visibilité: 2000 m
brume
Evoluant progressivement
du 18 à 16 UTC au 18 à 18 UTC
Nuages fragmentés à une hauteur de 1400 ft

TAF: LFOE 180200Z 1803/1903 15003KT CAVOK TEMPO 1803/1809 2000 BR BECMG 1816/1818 BKN014

Observations et prévisions météorologiques de plus de 4000 aéroports (messages METAR et TAF).

Les stations disponibles sont représentées par des disques jaunes et rouges sur la carte.

Passer la souris dessus pour voir le nom de la station.

Cliquer dessus pour voir les observations et prévisions météorologiques.

Pour changer de carte: cliquez sur les boutons verts avec une croix noire pour zoomer, sur le bouton vert avec un tiret pour effectuer un zoom arrière, ou sur les flèches vertes pour les cartes adjacentes.


METAR-TAF: